sensor_id;sensor_type;location;lat;lon;timestamp;P1;durP1;ratioP1;P2;durP2;ratioP2
71715;SDS011;59568;52.128;5.434;2022-09-03T00:00:46;3.13;;;1.00;;
71715;SDS011;59568;52.128;5.434;2022-09-03T00:06:42;2.53;;;1.00;;
71715;SDS011;59568;52.128;5.434;2022-09-03T00:09:18;1.70;;;1.15;;
71715;SDS011;59568;52.128;5.434;2022-09-03T00:17:28;4.07;;;1.27;;
71715;SDS011;59568;52.128;5.434;2022-09-03T00:20:09;2.83;;;1.20;;
71715;SDS011;59568;52.128;5.434;2022-09-03T00:22:42;1.90;;;1.00;;
71715;SDS011;59568;52.128;5.434;2022-09-03T00:25:14;2.25;;;1.23;;
71715;SDS011;59568;52.128;5.434;2022-09-03T00:27:50;3.85;;;1.13;;
71715;SDS011;59568;52.128;5.434;2022-09-03T00:30:21;3.72;;;1.30;;
71715;SDS011;59568;52.128;5.434;2022-09-03T00:33:12;3.93;;;1.40;;
71715;SDS011;59568;52.128;5.434;2022-09-03T00:38:29;3.90;;;1.10;;
71715;SDS011;59568;52.128;5.434;2022-09-03T00:57:11;2.05;;;0.88;;
71715;SDS011;59568;52.128;5.434;2022-09-03T01:00:05;1.93;;;1.20;;
71715;SDS011;59568;52.128;5.434;2022-09-03T01:13:39;3.80;;;1.23;;
71715;SDS011;59568;52.128;5.434;2022-09-03T01:18:39;2.42;;;0.90;;
71715;SDS011;59568;52.128;5.434;2022-09-03T01:30:13;3.17;;;1.05;;
71715;SDS011;59568;52.128;5.434;2022-09-03T01:35:26;1.92;;;0.80;;
71715;SDS011;59568;52.128;5.434;2022-09-03T01:43:54;1.75;;;0.88;;
71715;SDS011;59568;52.128;5.434;2022-09-03T01:46:42;2.33;;;0.80;;
71715;SDS011;59568;52.128;5.434;2022-09-03T01:49:21;3.28;;;1.30;;
71715;SDS011;59568;52.128;5.434;2022-09-03T01:51:57;2.60;;;1.10;;
71715;SDS011;59568;52.128;5.434;2022-09-03T01:54:37;1.43;;;0.93;;
71715;SDS011;59568;52.128;5.434;2022-09-03T02:00:04;3.20;;;0.90;;
71715;SDS011;59568;52.128;5.434;2022-09-03T02:02:42;2.47;;;0.80;;
71715;SDS011;59568;52.128;5.434;2022-09-03T02:05:18;2.65;;;1.00;;
71715;SDS011;59568;52.128;5.434;2022-09-03T02:07:56;2.37;;;1.10;;
71715;SDS011;59568;52.128;5.434;2022-09-03T02:13:13;1.30;;;0.90;;
71715;SDS011;59568;52.128;5.434;2022-09-03T02:15:45;2.47;;;0.90;;
71715;SDS011;59568;52.128;5.434;2022-09-03T02:18:16;3.92;;;1.30;;
71715;SDS011;59568;52.128;5.434;2022-09-03T02:20:46;3.03;;;0.90;;
71715;SDS011;59568;52.128;5.434;2022-09-03T02:23:15;1.65;;;1.10;;
71715;SDS011;59568;52.128;5.434;2022-09-03T02:25:49;4.10;;;1.40;;
71715;SDS011;59568;52.128;5.434;2022-09-03T02:28:21;1.80;;;0.90;;
71715;SDS011;59568;52.128;5.434;2022-09-03T02:30:48;1.80;;;0.90;;
71715;SDS011;59568;52.128;5.434;2022-09-03T02:33:16;2.57;;;1.13;;
71715;SDS011;59568;52.128;5.434;2022-09-03T02:35:43;1.55;;;0.85;;
71715;SDS011;59568;52.128;5.434;2022-09-03T02:38:20;2.22;;;1.20;;
71715;SDS011;59568;52.128;5.434;2022-09-03T02:40:51;2.15;;;1.00;;
71715;SDS011;59568;52.128;5.434;2022-09-03T02:43:30;2.38;;;1.17;;
71715;SDS011;59568;52.128;5.434;2022-09-03T02:46:06;3.57;;;1.13;;
71715;SDS011;59568;52.128;5.434;2022-09-03T02:48:38;4.35;;;0.93;;
71715;SDS011;59568;52.128;5.434;2022-09-03T02:51:05;2.58;;;1.23;;
71715;SDS011;59568;52.128;5.434;2022-09-03T02:53:40;5.07;;;0.95;;
71715;SDS011;59568;52.128;5.434;2022-09-03T02:56:07;2.55;;;0.93;;
71715;SDS011;59568;52.128;5.434;2022-09-03T02:58:35;1.40;;;0.90;;
71715;SDS011;59568;52.128;5.434;2022-09-03T03:01:02;4.75;;;0.95;;
71715;SDS011;59568;52.128;5.434;2022-09-03T03:03:29;4.75;;;1.08;;
71715;SDS011;59568;52.128;5.434;2022-09-03T03:05:57;1.70;;;0.90;;
71715;SDS011;59568;52.128;5.434;2022-09-03T03:08:26;2.58;;;1.23;;
71715;SDS011;59568;52.128;5.434;2022-09-03T03:10:56;1.50;;;0.70;;
71715;SDS011;59568;52.128;5.434;2022-09-03T03:13:24;2.35;;;0.95;;
71715;SDS011;59568;52.128;5.434;2022-09-03T03:15:56;2.85;;;1.15;;
71715;SDS011;59568;52.128;5.434;2022-09-03T03:18:24;3.22;;;1.05;;
71715;SDS011;59568;52.128;5.434;2022-09-03T03:20:51;2.92;;;1.08;;
71715;SDS011;59568;52.128;5.434;2022-09-03T03:23:18;1.50;;;0.80;;
71715;SDS011;59568;52.128;5.434;2022-09-03T03:25:46;2.67;;;0.95;;
71715;SDS011;59568;52.128;5.434;2022-09-03T03:28:13;2.70;;;1.20;;
71715;SDS011;59568;52.128;5.434;2022-09-03T03:30:40;1.70;;;0.75;;
71715;SDS011;59568;52.128;5.434;2022-09-03T03:33:08;2.92;;;1.00;;
71715;SDS011;59568;52.128;5.434;2022-09-03T03:35:35;1.60;;;0.80;;
71715;SDS011;59568;52.128;5.434;2022-09-03T03:38:02;2.67;;;0.93;;
71715;SDS011;59568;52.128;5.434;2022-09-03T03:40:30;2.40;;;1.17;;
71715;SDS011;59568;52.128;5.434;2022-09-03T03:42:57;1.20;;;0.80;;
71715;SDS011;59568;52.128;5.434;2022-09-03T03:45:24;1.63;;;1.08;;
71715;SDS011;59568;52.128;5.434;2022-09-03T03:47:55;1.70;;;0.80;;
71715;SDS011;59568;52.128;5.434;2022-09-03T03:50:24;2.05;;;0.90;;
71715;SDS011;59568;52.128;5.434;2022-09-03T03:52:51;2.60;;;1.13;;
71715;SDS011;59568;52.128;5.434;2022-09-03T03:55:18;1.40;;;0.85;;
71715;SDS011;59568;52.128;5.434;2022-09-03T03:57:45;3.28;;;1.10;;
71715;SDS011;59568;52.128;5.434;2022-09-03T04:00:12;1.53;;;0.80;;
71715;SDS011;59568;52.128;5.434;2022-09-03T04:02:40;2.58;;;0.73;;
71715;SDS011;59568;52.128;5.434;2022-09-03T04:05:08;1.55;;;0.90;;
71715;SDS011;59568;52.128;5.434;2022-09-03T04:07:36;1.80;;;0.80;;
71715;SDS011;59568;52.128;5.434;2022-09-03T04:10:03;2.63;;;1.00;;
71715;SDS011;59568;52.128;5.434;2022-09-03T04:12:31;1.60;;;0.80;;
71715;SDS011;59568;52.128;5.434;2022-09-03T04:14:58;2.45;;;1.00;;
71715;SDS011;59568;52.128;5.434;2022-09-03T04:17:26;1.85;;;1.10;;
71715;SDS011;59568;52.128;5.434;2022-09-03T04:19:53;2.20;;;1.10;;
71715;SDS011;59568;52.128;5.434;2022-09-03T04:22:20;1.98;;;1.10;;
71715;SDS011;59568;52.128;5.434;2022-09-03T04:24:47;2.17;;;0.67;;
71715;SDS011;59568;52.128;5.434;2022-09-03T04:27:14;1.80;;;1.00;;
71715;SDS011;59568;52.128;5.434;2022-09-03T04:29:41;1.80;;;1.38;;
71715;SDS011;59568;52.128;5.434;2022-09-03T04:32:09;3.35;;;1.00;;
71715;SDS011;59568;52.128;5.434;2022-09-03T04:34:54;1.30;;;1.10;;
71715;SDS011;59568;52.128;5.434;2022-09-03T04:37:22;1.60;;;0.90;;
71715;SDS011;59568;52.128;5.434;2022-09-03T04:39:49;3.15;;;1.10;;
71715;SDS011;59568;52.128;5.434;2022-09-03T04:42:16;2.42;;;0.93;;
71715;SDS011;59568;52.128;5.434;2022-09-03T04:44:43;2.90;;;1.33;;
71715;SDS011;59568;52.128;5.434;2022-09-03T04:47:10;5.75;;;1.33;;
71715;SDS011;59568;52.128;5.434;2022-09-03T04:49:37;5.10;;;0.90;;
71715;SDS011;59568;52.128;5.434;2022-09-03T04:52:05;2.88;;;1.17;;
71715;SDS011;59568;52.128;5.434;2022-09-03T04:54:32;2.20;;;1.33;;
71715;SDS011;59568;52.128;5.434;2022-09-03T04:56:59;2.83;;;0.75;;
71715;SDS011;59568;52.128;5.434;2022-09-03T04:59:26;3.17;;;1.10;;
71715;SDS011;59568;52.128;5.434;2022-09-03T05:01:53;2.07;;;1.00;;
71715;SDS011;59568;52.128;5.434;2022-09-03T05:04:22;1.40;;;0.80;;
71715;SDS011;59568;52.128;5.434;2022-09-03T05:06:49;2.67;;;1.45;;
71715;SDS011;59568;52.128;5.434;2022-09-03T05:09:16;4.90;;;1.02;;
71715;SDS011;59568;52.128;5.434;2022-09-03T05:11:43;1.83;;;1.08;;
71715;SDS011;59568;52.128;5.434;2022-09-03T05:14:10;3.13;;;0.90;;
71715;SDS011;59568;52.128;5.434;2022-09-03T05:16:38;1.40;;;0.60;;
71715;SDS011;59568;52.128;5.434;2022-09-03T05:19:05;2.00;;;0.90;;
71715;SDS011;59568;52.128;5.434;2022-09-03T05:21:33;1.95;;;1.15;;
71715;SDS011;59568;52.128;5.434;2022-09-03T05:24:01;3.38;;;0.98;;
71715;SDS011;59568;52.128;5.434;2022-09-03T05:26:30;3.03;;;0.77;;
71715;SDS011;59568;52.128;5.434;2022-09-03T05:29:00;3.25;;;1.05;;
71715;SDS011;59568;52.128;5.434;2022-09-03T05:31:33;3.20;;;1.10;;
71715;SDS011;59568;52.128;5.434;2022-09-03T05:34:04;1.77;;;0.90;;
71715;SDS011;59568;52.128;5.434;2022-09-03T05:36:32;2.28;;;0.75;;
71715;SDS011;59568;52.128;5.434;2022-09-03T05:39:02;1.80;;;0.80;;
71715;SDS011;59568;52.128;5.434;2022-09-03T05:41:30;2.17;;;1.02;;
71715;SDS011;59568;52.128;5.434;2022-09-03T05:43:59;3.05;;;0.80;;
71715;SDS011;59568;52.128;5.434;2022-09-03T05:46:27;2.55;;;1.10;;
71715;SDS011;59568;52.128;5.434;2022-09-03T05:48:59;1.33;;;0.73;;
71715;SDS011;59568;52.128;5.434;2022-09-03T05:51:28;3.27;;;1.00;;
71715;SDS011;59568;52.128;5.434;2022-09-03T05:53:56;2.13;;;0.90;;
71715;SDS011;59568;52.128;5.434;2022-09-03T05:56:24;3.72;;;0.90;;
71715;SDS011;59568;52.128;5.434;2022-09-03T05:58:53;1.90;;;1.00;;
71715;SDS011;59568;52.128;5.434;2022-09-03T06:01:26;3.00;;;0.90;;
71715;SDS011;59568;52.128;5.434;2022-09-03T06:03:58;1.40;;;0.90;;
71715;SDS011;59568;52.128;5.434;2022-09-03T06:06:30;2.53;;;1.00;;
71715;SDS011;59568;52.128;5.434;2022-09-03T06:09:00;2.67;;;0.98;;
71715;SDS011;59568;52.128;5.434;2022-09-03T06:11:30;2.15;;;1.00;;
71715;SDS011;59568;52.128;5.434;2022-09-03T06:13:58;1.52;;;1.00;;
71715;SDS011;59568;52.128;5.434;2022-09-03T06:16:32;2.27;;;0.90;;
71715;SDS011;59568;52.128;5.434;2022-09-03T06:19:01;2.45;;;0.90;;
71715;SDS011;59568;52.128;5.434;2022-09-03T06:21:31;2.33;;;1.20;;
71715;SDS011;59568;52.128;5.434;2022-09-03T06:23:58;2.05;;;1.23;;
71715;SDS011;59568;52.128;5.434;2022-09-03T06:26:26;2.60;;;1.13;;
71715;SDS011;59568;52.128;5.434;2022-09-03T06:28:55;3.17;;;0.90;;
71715;SDS011;59568;52.128;5.434;2022-09-03T06:31:23;1.38;;;0.70;;
71715;SDS011;59568;52.128;5.434;2022-09-03T06:33:51;1.52;;;1.00;;
71715;SDS011;59568;52.128;5.434;2022-09-03T06:36:21;1.48;;;1.05;;
71715;SDS011;59568;52.128;5.434;2022-09-03T06:38:53;2.08;;;0.90;;
71715;SDS011;59568;52.128;5.434;2022-09-03T06:41:22;2.93;;;0.70;;
71715;SDS011;59568;52.128;5.434;2022-09-03T06:43:52;2.05;;;0.70;;
71715;SDS011;59568;52.128;5.434;2022-09-03T06:46:24;2.92;;;1.00;;
71715;SDS011;59568;52.128;5.434;2022-09-03T06:48:51;3.50;;;0.70;;
71715;SDS011;59568;52.128;5.434;2022-09-03T06:51:20;1.58;;;0.60;;
71715;SDS011;59568;52.128;5.434;2022-09-03T06:53:52;1.97;;;0.60;;
71715;SDS011;59568;52.128;5.434;2022-09-03T06:56:22;2.03;;;0.80;;
71715;SDS011;59568;52.128;5.434;2022-09-03T06:58:58;1.77;;;0.80;;
71715;SDS011;59568;52.128;5.434;2022-09-03T07:01:30;4.60;;;0.88;;
71715;SDS011;59568;52.128;5.434;2022-09-03T07:04:02;2.22;;;0.73;;
71715;SDS011;59568;52.128;5.434;2022-09-03T07:06:31;3.23;;;0.77;;
71715;SDS011;59568;52.128;5.434;2022-09-03T07:09:03;5.53;;;1.00;;
71715;SDS011;59568;52.128;5.434;2022-09-03T07:11:34;1.27;;;0.60;;
71715;SDS011;59568;52.128;5.434;2022-09-03T07:14:03;1.27;;;0.63;;
71715;SDS011;59568;52.128;5.434;2022-09-03T07:16:35;1.88;;;0.85;;
71715;SDS011;59568;52.128;5.434;2022-09-03T07:19:05;1.90;;;0.70;;
71715;SDS011;59568;52.128;5.434;2022-09-03T07:21:35;3.28;;;0.60;;
71715;SDS011;59568;52.128;5.434;2022-09-03T07:24:03;2.70;;;1.00;;
71715;SDS011;59568;52.128;5.434;2022-09-03T07:26:33;1.20;;;0.75;;
71715;SDS011;59568;52.128;5.434;2022-09-03T07:29:02;1.63;;;0.95;;
71715;SDS011;59568;52.128;5.434;2022-09-03T07:31:30;4.43;;;0.70;;
71715;SDS011;59568;52.128;5.434;2022-09-03T07:34:00;1.48;;;0.40;;
71715;SDS011;59568;52.128;5.434;2022-09-03T07:36:42;2.67;;;0.98;;
71715;SDS011;59568;52.128;5.434;2022-09-03T07:39:14;1.80;;;0.65;;
71715;SDS011;59568;52.128;5.434;2022-09-03T07:41:42;5.05;;;0.85;;
71715;SDS011;59568;52.128;5.434;2022-09-03T07:44:12;2.37;;;0.50;;
71715;SDS011;59568;52.128;5.434;2022-09-03T07:46:41;1.35;;;0.60;;
71715;SDS011;59568;52.128;5.434;2022-09-03T07:49:11;3.25;;;0.90;;
71715;SDS011;59568;52.128;5.434;2022-09-03T07:51:38;1.73;;;0.60;;
71715;SDS011;59568;52.128;5.434;2022-09-03T07:54:09;1.92;;;0.75;;
71715;SDS011;59568;52.128;5.434;2022-09-03T07:56:37;2.33;;;0.60;;
71715;SDS011;59568;52.128;5.434;2022-09-03T07:59:06;1.63;;;0.60;;
71715;SDS011;59568;52.128;5.434;2022-09-03T08:01:34;2.08;;;0.65;;
71715;SDS011;59568;52.128;5.434;2022-09-03T08:04:04;2.42;;;0.65;;
71715;SDS011;59568;52.128;5.434;2022-09-03T08:06:34;2.40;;;0.60;;
71715;SDS011;59568;52.128;5.434;2022-09-03T08:09:06;2.03;;;0.70;;
71715;SDS011;59568;52.128;5.434;2022-09-03T08:11:39;5.18;;;0.65;;
71715;SDS011;59568;52.128;5.434;2022-09-03T08:14:09;3.38;;;0.80;;
71715;SDS011;59568;52.128;5.434;2022-09-03T08:16:39;2.70;;;0.70;;
71715;SDS011;59568;52.128;5.434;2022-09-03T08:19:09;3.47;;;0.50;;
71715;SDS011;59568;52.128;5.434;2022-09-03T08:21:39;2.70;;;0.70;;
71715;SDS011;59568;52.128;5.434;2022-09-03T08:24:10;1.63;;;0.50;;
71715;SDS011;59568;52.128;5.434;2022-09-03T08:26:38;5.78;;;0.90;;
71715;SDS011;59568;52.128;5.434;2022-09-03T08:29:16;1.77;;;0.50;;
71715;SDS011;59568;52.128;5.434;2022-09-03T08:31:43;2.55;;;0.60;;
71715;SDS011;59568;52.128;5.434;2022-09-03T08:34:10;1.90;;;0.40;;
71715;SDS011;59568;52.128;5.434;2022-09-03T08:36:38;1.55;;;0.50;;
71715;SDS011;59568;52.128;5.434;2022-09-03T08:39:07;4.05;;;0.57;;
71715;SDS011;59568;52.128;5.434;2022-09-03T08:49:26;2.95;;;0.52;;
71715;SDS011;59568;52.128;5.434;2022-09-03T08:52:30;1.90;;;0.50;;
71715;SDS011;59568;52.128;5.434;2022-09-03T08:57:47;1.88;;;0.85;;
71715;SDS011;59568;52.128;5.434;2022-09-03T09:00:17;2.10;;;0.73;;
71715;SDS011;59568;52.128;5.434;2022-09-03T09:02:51;1.67;;;0.70;;
71715;SDS011;59568;52.128;5.434;2022-09-03T09:05:42;2.38;;;0.52;;
71715;SDS011;59568;52.128;5.434;2022-09-03T09:08:29;1.48;;;0.68;;
71715;SDS011;59568;52.128;5.434;2022-09-03T09:14:00;1.80;;;0.43;;
71715;SDS011;59568;52.128;5.434;2022-09-03T09:16:34;4.47;;;0.60;;
71715;SDS011;59568;52.128;5.434;2022-09-03T09:19:17;3.85;;;0.50;;
71715;SDS011;59568;52.128;5.434;2022-09-03T09:21:51;3.47;;;0.88;;
71715;SDS011;59568;52.128;5.434;2022-09-03T09:24:25;1.85;;;0.57;;
71715;SDS011;59568;52.128;5.434;2022-09-03T09:26:59;1.00;;;0.40;;
71715;SDS011;59568;52.128;5.434;2022-09-03T09:29:30;1.67;;;0.57;;
71715;SDS011;59568;52.128;5.434;2022-09-03T09:32:00;1.33;;;0.60;;
71715;SDS011;59568;52.128;5.434;2022-09-03T09:34:36;1.40;;;0.65;;
71715;SDS011;59568;52.128;5.434;2022-09-03T09:37:05;1.33;;;0.50;;
71715;SDS011;59568;52.128;5.434;2022-09-03T09:39:36;4.03;;;0.60;;
71715;SDS011;59568;52.128;5.434;2022-09-03T09:42:04;1.27;;;0.40;;
71715;SDS011;59568;52.128;5.434;2022-09-03T09:44:37;1.40;;;0.50;;
71715;SDS011;59568;52.128;5.434;2022-09-03T09:47:10;5.10;;;0.70;;
71715;SDS011;59568;52.128;5.434;2022-09-03T09:52:13;3.37;;;0.43;;
71715;SDS011;59568;52.128;5.434;2022-09-03T09:54:42;3.03;;;0.70;;
71715;SDS011;59568;52.128;5.434;2022-09-03T09:57:14;1.20;;;0.43;;
71715;SDS011;59568;52.128;5.434;2022-09-03T09:59:43;3.50;;;0.50;;
71715;SDS011;59568;52.128;5.434;2022-09-03T10:04:55;2.43;;;0.70;;
71715;SDS011;59568;52.128;5.434;2022-09-03T10:07:28;5.28;;;0.50;;
71715;SDS011;59568;52.128;5.434;2022-09-03T10:10:17;2.15;;;0.40;;
71715;SDS011;59568;52.128;5.434;2022-09-03T10:20:30;2.55;;;0.40;;
71715;SDS011;59568;52.128;5.434;2022-09-03T10:23:21;3.85;;;0.45;;
71715;SDS011;59568;52.128;5.434;2022-09-03T10:28:20;2.63;;;0.40;;
71715;SDS011;59568;52.128;5.434;2022-09-03T10:30:59;1.73;;;0.57;;
71715;SDS011;59568;52.128;5.434;2022-09-03T10:33:47;4.40;;;0.40;;
71715;SDS011;59568;52.128;5.434;2022-09-03T10:39:11;1.10;;;0.40;;
71715;SDS011;59568;52.128;5.434;2022-09-03T10:42:09;1.38;;;0.40;;
71715;SDS011;59568;52.128;5.434;2022-09-03T10:45:06;2.50;;;0.40;;
71715;SDS011;59568;52.128;5.434;2022-09-03T10:50:45;3.22;;;0.45;;
71715;SDS011;59568;52.128;5.434;2022-09-03T10:53:28;1.98;;;0.50;;
71715;SDS011;59568;52.128;5.434;2022-09-03T10:56:00;2.45;;;0.45;;
71715;SDS011;59568;52.128;5.434;2022-09-03T10:58:56;1.50;;;0.60;;
71715;SDS011;59568;52.128;5.434;2022-09-03T11:05:09;4.35;;;0.50;;
71715;SDS011;59568;52.128;5.434;2022-09-03T11:07:40;9.10;;;0.50;;
71715;SDS011;59568;52.128;5.434;2022-09-03T11:10:19;2.45;;;0.50;;
71715;SDS011;59568;52.128;5.434;2022-09-03T11:20:40;2.33;;;0.50;;
71715;SDS011;59568;52.128;5.434;2022-09-03T11:23:09;4.10;;;0.45;;
71715;SDS011;59568;52.128;5.434;2022-09-03T11:25:41;2.63;;;0.47;;
71715;SDS011;59568;52.128;5.434;2022-09-03T11:31:08;2.90;;;0.32;;
71715;SDS011;59568;52.128;5.434;2022-09-03T11:33:47;1.30;;;0.40;;
71715;SDS011;59568;52.128;5.434;2022-09-03T11:36:28;2.50;;;0.40;;
71715;SDS011;59568;52.128;5.434;2022-09-03T11:38:59;2.07;;;0.40;;
71715;SDS011;59568;52.128;5.434;2022-09-03T11:41:38;1.83;;;0.50;;
71715;SDS011;59568;52.128;5.434;2022-09-03T11:44:18;1.73;;;0.40;;
71715;SDS011;59568;52.128;5.434;2022-09-03T11:46:56;4.95;;;0.50;;
71715;SDS011;59568;52.128;5.434;2022-09-03T11:49:31;2.53;;;0.60;;
71715;SDS011;59568;52.128;5.434;2022-09-03T11:52:00;2.23;;;0.60;;
71715;SDS011;59568;52.128;5.434;2022-09-03T11:54:41;1.15;;;0.43;;
71715;SDS011;59568;52.128;5.434;2022-09-03T11:57:22;1.85;;;0.50;;
71715;SDS011;59568;52.128;5.434;2022-09-03T11:59:54;3.13;;;0.50;;
71715;SDS011;59568;52.128;5.434;2022-09-03T12:02:47;1.73;;;0.40;;
71715;SDS011;59568;52.128;5.434;2022-09-03T12:11:24;4.47;;;0.45;;
71715;SDS011;59568;52.128;5.434;2022-09-03T12:14:39;1.70;;;0.40;;
71715;SDS011;59568;52.128;5.434;2022-09-03T12:19:53;4.47;;;0.80;;
71715;SDS011;59568;52.128;5.434;2022-09-03T12:22:23;1.85;;;0.40;;
71715;SDS011;59568;52.128;5.434;2022-09-03T12:24:54;3.10;;;0.43;;
71715;SDS011;59568;52.128;5.434;2022-09-03T12:27:22;4.05;;;0.40;;
71715;SDS011;59568;52.128;5.434;2022-09-03T12:30:02;2.80;;;0.52;;
71715;SDS011;59568;52.128;5.434;2022-09-03T12:32:32;1.73;;;0.30;;
71715;SDS011;59568;52.128;5.434;2022-09-03T12:35:18;1.52;;;0.40;;
71715;SDS011;59568;52.128;5.434;2022-09-03T12:38:07;4.38;;;0.68;;
71715;SDS011;59568;52.128;5.434;2022-09-03T12:40:41;2.03;;;0.40;;
71715;SDS011;59568;52.128;5.434;2022-09-03T12:43:29;2.67;;;0.45;;
71715;SDS011;59568;52.128;5.434;2022-09-03T12:46:12;2.87;;;0.30;;
71715;SDS011;59568;52.128;5.434;2022-09-03T12:48:46;2.85;;;0.50;;
71715;SDS011;59568;52.128;5.434;2022-09-03T12:51:45;0.90;;;0.40;;
71715;SDS011;59568;52.128;5.434;2022-09-03T12:54:16;2.58;;;0.57;;
71715;SDS011;59568;52.128;5.434;2022-09-03T12:56:44;2.08;;;0.57;;
71715;SDS011;59568;52.128;5.434;2022-09-03T12:59:19;2.60;;;0.60;;
71715;SDS011;59568;52.128;5.434;2022-09-03T13:01:49;1.05;;;0.45;;
71715;SDS011;59568;52.128;5.434;2022-09-03T13:04:22;1.23;;;0.52;;
71715;SDS011;59568;52.128;5.434;2022-09-03T13:06:58;3.20;;;0.63;;
71715;SDS011;59568;52.128;5.434;2022-09-03T13:09:29;1.10;;;0.68;;
71715;SDS011;59568;52.128;5.434;2022-09-03T13:11:59;2.47;;;0.40;;
71715;SDS011;59568;52.128;5.434;2022-09-03T13:14:43;1.42;;;0.40;;
71715;SDS011;59568;52.128;5.434;2022-09-03T13:17:16;2.85;;;0.50;;
71715;SDS011;59568;52.128;5.434;2022-09-03T13:25:54;1.90;;;0.50;;
71715;SDS011;59568;52.128;5.434;2022-09-03T13:34:10;2.40;;;0.40;;
71715;SDS011;59568;52.128;5.434;2022-09-03T13:39:20;2.00;;;0.40;;
71715;SDS011;59568;52.128;5.434;2022-09-03T13:42:17;2.33;;;0.55;;
71715;SDS011;59568;52.128;5.434;2022-09-03T13:45:12;2.20;;;0.50;;
71715;SDS011;59568;52.128;5.434;2022-09-03T13:47:55;2.65;;;0.50;;
71715;SDS011;59568;52.128;5.434;2022-09-03T13:54:41;1.63;;;0.60;;
71715;SDS011;59568;52.128;5.434;2022-09-03T14:00:07;2.17;;;1.15;;
71715;SDS011;59568;52.128;5.434;2022-09-03T14:05:22;1.58;;;0.63;;
71715;SDS011;59568;52.128;5.434;2022-09-03T14:08:00;2.30;;;0.40;;
71715;SDS011;59568;52.128;5.434;2022-09-03T14:10:55;2.00;;;0.57;;
71715;SDS011;59568;52.128;5.434;2022-09-03T14:25:56;1.77;;;0.70;;
71715;SDS011;59568;52.128;5.434;2022-09-03T14:39:27;1.67;;;0.40;;
71715;SDS011;59568;52.128;5.434;2022-09-03T14:42:08;3.03;;;0.82;;
71715;SDS011;59568;52.128;5.434;2022-09-03T14:53:35;1.30;;;0.80;;
71715;SDS011;59568;52.128;5.434;2022-09-03T14:57:15;1.75;;;0.70;;
71715;SDS011;59568;52.128;5.434;2022-09-03T14:59:26;2.22;;;0.70;;
71715;SDS011;59568;52.128;5.434;2022-09-03T15:05:09;1.43;;;0.70;;
71715;SDS011;59568;52.128;5.434;2022-09-03T15:12:58;1.35;;;0.60;;
71715;SDS011;59568;52.128;5.434;2022-09-03T15:35:03;1.80;;;0.57;;
71715;SDS011;59568;52.128;5.434;2022-09-03T15:37:43;4.20;;;0.85;;
71715;SDS011;59568;52.128;5.434;2022-09-03T15:42:48;1.95;;;0.77;;
71715;SDS011;59568;52.128;5.434;2022-09-03T15:45:34;2.03;;;0.87;;
71715;SDS011;59568;52.128;5.434;2022-09-03T15:53:36;1.75;;;0.73;;
71715;SDS011;59568;52.128;5.434;2022-09-03T16:01:51;3.20;;;1.08;;
71715;SDS011;59568;52.128;5.434;2022-09-03T16:04:26;2.03;;;0.95;;
71715;SDS011;59568;52.128;5.434;2022-09-03T16:07:18;1.60;;;0.70;;
71715;SDS011;59568;52.128;5.434;2022-09-03T16:09:55;1.73;;;1.00;;
71715;SDS011;59568;52.128;5.434;2022-09-03T16:16:01;1.65;;;0.70;;
71715;SDS011;59568;52.128;5.434;2022-09-03T16:24:43;2.65;;;1.38;;
71715;SDS011;59568;52.128;5.434;2022-09-03T16:29:56;4.47;;;0.82;;
71715;SDS011;59568;52.128;5.434;2022-09-03T16:35:30;1.92;;;1.00;;
71715;SDS011;59568;52.128;5.434;2022-09-03T16:49:44;2.30;;;0.93;;
71715;SDS011;59568;52.128;5.434;2022-09-03T16:57:59;2.00;;;0.90;;
71715;SDS011;59568;52.128;5.434;2022-09-03T17:04:18;1.50;;;1.17;;
71715;SDS011;59568;52.128;5.434;2022-09-03T17:16:02;1.73;;;1.00;;
71715;SDS011;59568;52.128;5.434;2022-09-03T17:18:13;2.25;;;0.90;;
71715;SDS011;59568;52.128;5.434;2022-09-03T17:23:50;1.67;;;0.90;;
71715;SDS011;59568;52.128;5.434;2022-09-03T17:26:32;2.45;;;1.15;;
71715;SDS011;59568;52.128;5.434;2022-09-03T17:32:21;2.13;;;1.10;;
71715;SDS011;59568;52.128;5.434;2022-09-03T17:35:21;1.60;;;0.95;;
71715;SDS011;59568;52.128;5.434;2022-09-03T17:47:16;2.47;;;1.30;;
71715;SDS011;59568;52.128;5.434;2022-09-03T17:57:39;2.40;;;1.35;;
71715;SDS011;59568;52.128;5.434;2022-09-03T18:00:23;3.33;;;1.20;;
71715;SDS011;59568;52.128;5.434;2022-09-03T18:05:44;2.23;;;1.00;;
71715;SDS011;59568;52.128;5.434;2022-09-03T18:08:23;2.60;;;1.35;;
71715;SDS011;59568;52.128;5.434;2022-09-03T18:11:10;2.58;;;1.13;;
71715;SDS011;59568;52.128;5.434;2022-09-03T18:18:46;2.37;;;1.17;;
71715;SDS011;59568;52.128;5.434;2022-09-03T18:21:19;1.85;;;1.10;;
71715;SDS011;59568;52.128;5.434;2022-09-03T18:24:21;4.05;;;1.48;;
71715;SDS011;59568;52.128;5.434;2022-09-03T18:27:21;2.28;;;1.30;;
71715;SDS011;59568;52.128;5.434;2022-09-03T18:30:29;1.92;;;1.35;;
71715;SDS011;59568;52.128;5.434;2022-09-03T18:33:22;1.90;;;1.20;;
71715;SDS011;59568;52.128;5.434;2022-09-03T18:36:09;2.75;;;1.40;;
71715;SDS011;59568;52.128;5.434;2022-09-03T18:42:24;2.63;;;1.25;;
71715;SDS011;59568;52.128;5.434;2022-09-03T18:45:41;2.17;;;1.50;;
71715;SDS011;59568;52.128;5.434;2022-09-03T18:48:56;4.13;;;1.60;;
71715;SDS011;59568;52.128;5.434;2022-09-03T19:01:26;2.30;;;1.33;;
71715;SDS011;59568;52.128;5.434;2022-09-03T19:04:32;3.60;;;2.10;;
71715;SDS011;59568;52.128;5.434;2022-09-03T19:07:46;4.82;;;2.05;;
71715;SDS011;59568;52.128;5.434;2022-09-03T19:11:02;4.05;;;2.55;;
71715;SDS011;59568;52.128;5.434;2022-09-03T19:13:50;4.05;;;2.83;;
71715;SDS011;59568;52.128;5.434;2022-09-03T19:16:48;4.65;;;3.05;;
71715;SDS011;59568;52.128;5.434;2022-09-03T19:19:56;3.67;;;2.93;;
71715;SDS011;59568;52.128;5.434;2022-09-03T19:22:52;3.40;;;2.70;;
71715;SDS011;59568;52.128;5.434;2022-09-03T19:25:38;3.55;;;2.72;;
71715;SDS011;59568;52.128;5.434;2022-09-03T19:28:24;3.92;;;2.60;;
71715;SDS011;59568;52.128;5.434;2022-09-03T19:31:17;3.03;;;2.20;;
71715;SDS011;59568;52.128;5.434;2022-09-03T19:46:49;5.03;;;2.30;;
71715;SDS011;59568;52.128;5.434;2022-09-03T19:55:38;4.78;;;2.90;;
71715;SDS011;59568;52.128;5.434;2022-09-03T19:58:33;4.57;;;2.50;;
71715;SDS011;59568;52.128;5.434;2022-09-03T20:01:23;7.45;;;2.75;;
71715;SDS011;59568;52.128;5.434;2022-09-03T20:04:14;5.60;;;2.30;;
71715;SDS011;59568;52.128;5.434;2022-09-03T20:07:01;3.78;;;2.63;;
71715;SDS011;59568;52.128;5.434;2022-09-03T20:09:50;7.65;;;2.78;;
71715;SDS011;59568;52.128;5.434;2022-09-03T20:12:38;5.43;;;2.90;;
71715;SDS011;59568;52.128;5.434;2022-09-03T20:15:16;3.97;;;2.67;;
71715;SDS011;59568;52.128;5.434;2022-09-03T20:17:55;5.70;;;3.10;;
71715;SDS011;59568;52.128;5.434;2022-09-03T20:23:26;3.20;;;2.78;;
71715;SDS011;59568;52.128;5.434;2022-09-03T20:29:45;6.00;;;3.72;;
71715;SDS011;59568;52.128;5.434;2022-09-03T20:37:11;6.18;;;3.58;;
71715;SDS011;59568;52.128;5.434;2022-09-03T20:39:50;6.47;;;4.30;;
71715;SDS011;59568;52.128;5.434;2022-09-03T20:45:36;6.13;;;4.60;;
71715;SDS011;59568;52.128;5.434;2022-09-03T20:51:16;4.50;;;3.70;;
71715;SDS011;59568;52.128;5.434;2022-09-03T20:54:00;6.45;;;4.28;;
71715;SDS011;59568;52.128;5.434;2022-09-03T21:05:13;5.22;;;4.22;;
71715;SDS011;59568;52.128;5.434;2022-09-03T21:07:57;5.05;;;3.70;;
71715;SDS011;59568;52.128;5.434;2022-09-03T21:10:44;8.77;;;4.57;;
71715;SDS011;59568;52.128;5.434;2022-09-03T21:16:25;7.85;;;4.80;;
71715;SDS011;59568;52.128;5.434;2022-09-03T21:24:21;7.13;;;4.43;;
71715;SDS011;59568;52.128;5.434;2022-09-03T21:27:07;4.83;;;4.03;;
71715;SDS011;59568;52.128;5.434;2022-09-03T21:35:38;7.95;;;4.60;;
71715;SDS011;59568;52.128;5.434;2022-09-03T21:38:05;6.90;;;4.30;;
71715;SDS011;59568;52.128;5.434;2022-09-03T21:40:35;6.73;;;4.40;;
71715;SDS011;59568;52.128;5.434;2022-09-03T21:43:20;5.90;;;4.60;;
71715;SDS011;59568;52.128;5.434;2022-09-03T21:48:39;8.23;;;4.05;;